Adrian, Ohio
Current Conditions -  °F | °C
As of 12:53 AM on Sunday 21 Dec 2014 (Local Time) from KFDY Reporting Station
Haze Haze  
Wind Chill: 26°   Ceiling: Unl
Heat Index: 26°   Visibility: 4mi
Dew Point: 22°   Wind: 0mph
Humidity: 84%   Direction: NA
Pressure: 30.27"   Gusts: NA
Location:  41°N, 83.32°W
Report Text: KFDY 210553Z AUTO 00000KT 4SM BR CLR M03/M06 A3027 RMK AO2 SLP255 I1000 I6000 T10331056 11006 21044 50000
Loading
Personal Weather Stations






























Interactive Weather Map New forecast layout! Learn more

10-Day Weather Forecast

Advertisements
Track Severe Weather on mobile